sensor_id;sensor_type;location;lat;lon;timestamp;P1;durP1;ratioP1;P2;durP2;ratioP2
33912;SDS011;20200;52.084;5.224;2023-05-07T00:00:57;41.5;;;36.6;;
33912;SDS011;20200;52.084;5.224;2023-05-07T00:02:34;45.8;;;40.81;;
33912;SDS011;20200;52.084;5.224;2023-05-07T00:04:10;41.2;;;36.81;;
33912;SDS011;20200;52.084;5.224;2023-05-07T00:07:22;43.0;;;38.5;;
33912;SDS011;20200;52.084;5.224;2023-05-07T00:08:59;46.0;;;41.1;;
33912;SDS011;20200;52.084;5.224;2023-05-07T00:10:35;42.1;;;37.71;;
33912;SDS011;20200;52.084;5.224;2023-05-07T00:13:47;43.1;;;37.21;;
33912;SDS011;20200;52.084;5.224;2023-05-07T00:15:24;42.4;;;37.4;;
33912;SDS011;20200;52.084;5.224;2023-05-07T00:17:01;40.31;;;36.21;;
33912;SDS011;20200;52.084;5.224;2023-05-07T00:18:38;40.21;;;35.6;;
33912;SDS011;20200;52.084;5.224;2023-05-07T00:21:51;38.9;;;34.81;;
33912;SDS011;20200;52.084;5.224;2023-05-07T00:23:27;32.5;;;29.0;;
33912;SDS011;20200;52.084;5.224;2023-05-07T00:25:03;32.5;;;29.3;;
33912;SDS011;20200;52.084;5.224;2023-05-07T00:28:17;35.6;;;32.0;;
33912;SDS011;20200;52.084;5.224;2023-05-07T00:29:54;38.5;;;34.71;;
33912;SDS011;20200;52.084;5.224;2023-05-07T00:31:32;35.71;;;31.9;;
33912;SDS011;20200;52.084;5.224;2023-05-07T00:34:44;35.71;;;31.8;;
33912;SDS011;20200;52.084;5.224;2023-05-07T00:36:21;31.2;;;27.9;;
33912;SDS011;20200;52.084;5.224;2023-05-07T00:37:57;35.9;;;30.6;;
33912;SDS011;20200;52.084;5.224;2023-05-07T00:39:33;29.9;;;26.8;;
33912;SDS011;20200;52.084;5.224;2023-05-07T00:42:47;31.0;;;27.8;;
33912;SDS011;20200;52.084;5.224;2023-05-07T00:44:24;31.8;;;28.3;;
33912;SDS011;20200;52.084;5.224;2023-05-07T00:46:00;29.5;;;26.3;;
33912;SDS011;20200;52.084;5.224;2023-05-07T00:49:14;29.9;;;26.9;;
33912;SDS011;20200;52.084;5.224;2023-05-07T00:50:51;28.7;;;25.1;;
33912;SDS011;20200;52.084;5.224;2023-05-07T00:52:28;24.6;;;22.1;;
33912;SDS011;20200;52.084;5.224;2023-05-07T00:55:43;27.7;;;24.9;;
33912;SDS011;20200;52.084;5.224;2023-05-07T00:57:19;27.6;;;24.8;;
33912;SDS011;20200;52.084;5.224;2023-05-07T00:58:57;26.4;;;23.7;;
33912;SDS011;20200;52.084;5.224;2023-05-07T01:00:33;25.8;;;23.1;;
33912;SDS011;20200;52.084;5.224;2023-05-07T01:03:46;26.6;;;23.7;;
33912;SDS011;20200;52.084;5.224;2023-05-07T01:05:23;22.8;;;20.5;;
33912;SDS011;20200;52.084;5.224;2023-05-07T01:07:02;23.3;;;20.9;;
33912;SDS011;20200;52.084;5.224;2023-05-07T01:10:17;23.1;;;20.6;;
33912;SDS011;20200;52.084;5.224;2023-05-07T01:11:54;23.5;;;20.9;;
33912;SDS011;20200;52.084;5.224;2023-05-07T01:13:32;25.4;;;22.1;;
33912;SDS011;20200;52.084;5.224;2023-05-07T01:15:10;23.9;;;20.3;;
33912;SDS011;20200;52.084;5.224;2023-05-07T01:18:24;23.6;;;21.1;;
33912;SDS011;20200;52.084;5.224;2023-05-07T01:20:02;22.5;;;19.2;;
33912;SDS011;20200;52.084;5.224;2023-05-07T01:21:40;21.2;;;19.0;;
33912;SDS011;20200;52.084;5.224;2023-05-07T01:24:59;23.0;;;20.41;;
33912;SDS011;20200;52.084;5.224;2023-05-07T01:26:36;24.1;;;21.6;;
33912;SDS011;20200;52.084;5.224;2023-05-07T01:28:13;23.8;;;21.3;;
33912;SDS011;20200;52.084;5.224;2023-05-07T01:29:49;19.41;;;17.5;;
33912;SDS011;20200;52.084;5.224;2023-05-07T01:33:04;24.1;;;21.6;;
33912;SDS011;20200;52.084;5.224;2023-05-07T01:34:44;22.9;;;20.41;;
33912;SDS011;20200;52.084;5.224;2023-05-07T01:36:24;18.7;;;16.7;;
33912;SDS011;20200;52.084;5.224;2023-05-07T01:39:39;22.3;;;19.2;;
33912;SDS011;20200;52.084;5.224;2023-05-07T01:41:16;16.9;;;15.2;;
33912;SDS011;20200;52.084;5.224;2023-05-07T01:42:54;19.7;;;17.5;;
33912;SDS011;20200;52.084;5.224;2023-05-07T01:44:30;18.8;;;16.2;;
33912;SDS011;20200;52.084;5.224;2023-05-07T01:47:44;25.4;;;21.0;;
33912;SDS011;20200;52.084;5.224;2023-05-07T01:49:20;23.1;;;20.6;;
33912;SDS011;20200;52.084;5.224;2023-05-07T01:50:56;25.2;;;22.5;;
33912;SDS011;20200;52.084;5.224;2023-05-07T01:54:11;26.4;;;23.7;;
33912;SDS011;20200;52.084;5.224;2023-05-07T01:55:48;27.9;;;25.0;;
33912;SDS011;20200;52.084;5.224;2023-05-07T01:57:24;25.4;;;22.2;;
33912;SDS011;20200;52.084;5.224;2023-05-07T02:00:36;29.1;;;25.0;;
33912;SDS011;20200;52.084;5.224;2023-05-07T02:02:13;29.5;;;26.3;;
33912;SDS011;20200;52.084;5.224;2023-05-07T02:03:49;31.6;;;28.3;;
33912;SDS011;20200;52.084;5.224;2023-05-07T02:05:25;30.3;;;27.2;;
33912;SDS011;20200;52.084;5.224;2023-05-07T02:08:38;33.0;;;29.5;;
33912;SDS011;20200;52.084;5.224;2023-05-07T02:10:14;31.2;;;27.2;;
33912;SDS011;20200;52.084;5.224;2023-05-07T02:11:50;30.2;;;26.9;;
33912;SDS011;20200;52.084;5.224;2023-05-07T02:15:05;28.8;;;25.7;;
33912;SDS011;20200;52.084;5.224;2023-05-07T02:16:42;30.0;;;26.7;;
33912;SDS011;20200;52.084;5.224;2023-05-07T02:18:18;28.5;;;25.5;;
33912;SDS011;20200;52.084;5.224;2023-05-07T02:21:31;27.4;;;24.6;;
33912;SDS011;20200;52.084;5.224;2023-05-07T02:23:07;24.3;;;21.5;;
33912;SDS011;20200;52.084;5.224;2023-05-07T02:24:44;29.5;;;26.4;;
33912;SDS011;20200;52.084;5.224;2023-05-07T02:26:20;31.3;;;28.0;;
33912;SDS011;20200;52.084;5.224;2023-05-07T02:29:32;32.6;;;27.0;;
33912;SDS011;20200;52.084;5.224;2023-05-07T02:31:08;30.0;;;26.2;;
33912;SDS011;20200;52.084;5.224;2023-05-07T02:32:45;30.1;;;26.9;;
33912;SDS011;20200;52.084;5.224;2023-05-07T02:35:59;29.6;;;26.4;;
33912;SDS011;20200;52.084;5.224;2023-05-07T02:37:41;32.71;;;28.5;;
33912;SDS011;20200;52.084;5.224;2023-05-07T02:39:17;28.0;;;25.1;;
33912;SDS011;20200;52.084;5.224;2023-05-07T02:40:53;30.2;;;27.0;;
33912;SDS011;20200;52.084;5.224;2023-05-07T02:44:06;30.0;;;26.7;;
33912;SDS011;20200;52.084;5.224;2023-05-07T02:45:44;26.4;;;22.5;;
33912;SDS011;20200;52.084;5.224;2023-05-07T02:47:20;31.2;;;27.1;;
33912;SDS011;20200;52.084;5.224;2023-05-07T02:50:32;31.3;;;27.9;;
33912;SDS011;20200;52.084;5.224;2023-05-07T02:52:08;33.0;;;29.5;;
33912;SDS011;20200;52.084;5.224;2023-05-07T02:53:44;27.6;;;24.7;;
33912;SDS011;20200;52.084;5.224;2023-05-07T02:56:57;24.8;;;22.2;;
33912;SDS011;20200;52.084;5.224;2023-05-07T02:58:33;27.9;;;25.1;;
33912;SDS011;20200;52.084;5.224;2023-05-07T03:00:10;29.7;;;26.5;;
33912;SDS011;20200;52.084;5.224;2023-05-07T03:01:47;26.6;;;23.7;;
33912;SDS011;20200;52.084;5.224;2023-05-07T03:05:00;29.7;;;26.6;;
33912;SDS011;20200;52.084;5.224;2023-05-07T03:06:36;33.8;;;28.9;;
33912;SDS011;20200;52.084;5.224;2023-05-07T03:08:12;29.0;;;25.7;;
33912;SDS011;20200;52.084;5.224;2023-05-07T03:11:24;29.5;;;26.3;;
33912;SDS011;20200;52.084;5.224;2023-05-07T03:13:00;28.4;;;25.4;;
33912;SDS011;20200;52.084;5.224;2023-05-07T03:14:38;29.2;;;26.1;;
33912;SDS011;20200;52.084;5.224;2023-05-07T03:17:51;33.6;;;29.1;;
33912;SDS011;20200;52.084;5.224;2023-05-07T03:19:27;31.9;;;28.5;;
33912;SDS011;20200;52.084;5.224;2023-05-07T03:21:03;32.6;;;29.2;;
33912;SDS011;20200;52.084;5.224;2023-05-07T03:24:16;35.71;;;31.8;;
33912;SDS011;20200;52.084;5.224;2023-05-07T03:25:52;34.71;;;31.2;;
33912;SDS011;20200;52.084;5.224;2023-05-07T03:27:29;31.1;;;27.9;;
33912;SDS011;20200;52.084;5.224;2023-05-07T03:29:05;25.6;;;23.0;;
33912;SDS011;20200;52.084;5.224;2023-05-07T03:32:17;32.71;;;29.2;;
33912;SDS011;20200;52.084;5.224;2023-05-07T03:33:54;32.8;;;29.6;;
33912;SDS011;20200;52.084;5.224;2023-05-07T03:35:31;28.8;;;25.8;;
33912;SDS011;20200;52.084;5.224;2023-05-07T03:38:45;35.21;;;31.5;;
33912;SDS011;20200;52.084;5.224;2023-05-07T03:40:21;33.5;;;30.0;;
33912;SDS011;20200;52.084;5.224;2023-05-07T03:41:57;28.7;;;25.9;;
33912;SDS011;20200;52.084;5.224;2023-05-07T03:45:10;32.71;;;29.3;;
33912;SDS011;20200;52.084;5.224;2023-05-07T03:46:46;35.4;;;31.8;;
33912;SDS011;20200;52.084;5.224;2023-05-07T03:48:23;28.0;;;25.2;;
33912;SDS011;20200;52.084;5.224;2023-05-07T03:49:59;40.0;;;35.9;;
33912;SDS011;20200;52.084;5.224;2023-05-07T03:53:12;38.9;;;34.9;;
33912;SDS011;20200;52.084;5.224;2023-05-07T03:54:48;32.5;;;29.2;;
33912;SDS011;20200;52.084;5.224;2023-05-07T03:56:24;33.21;;;29.8;;
33912;SDS011;20200;52.084;5.224;2023-05-07T03:59:36;41.9;;;37.5;;
33912;SDS011;20200;52.084;5.224;2023-05-07T04:01:13;39.71;;;35.5;;
33912;SDS011;20200;52.084;5.224;2023-05-07T04:02:49;41.6;;;37.21;;
33912;SDS011;20200;52.084;5.224;2023-05-07T04:06:01;45.0;;;40.21;;
33912;SDS011;20200;52.084;5.224;2023-05-07T04:07:38;44.2;;;39.81;;
33912;SDS011;20200;52.084;5.224;2023-05-07T04:09:14;42.9;;;38.31;;
33912;SDS011;20200;52.084;5.224;2023-05-07T04:10:54;40.5;;;36.31;;
33912;SDS011;20200;52.084;5.224;2023-05-07T04:14:07;43.1;;;38.71;;
33912;SDS011;20200;52.084;5.224;2023-05-07T04:15:43;42.7;;;38.31;;
33912;SDS011;20200;52.084;5.224;2023-05-07T04:17:19;49.1;;;44.1;;
33912;SDS011;20200;52.084;5.224;2023-05-07T04:20:33;44.2;;;39.81;;
33912;SDS011;20200;52.084;5.224;2023-05-07T04:22:10;44.6;;;40.1;;
33912;SDS011;20200;52.084;5.224;2023-05-07T04:23:48;51.1;;;45.7;;
33912;SDS011;20200;52.084;5.224;2023-05-07T04:27:01;43.3;;;39.0;;
33912;SDS011;20200;52.084;5.224;2023-05-07T04:28:37;41.8;;;37.6;;
33912;SDS011;20200;52.084;5.224;2023-05-07T04:30:14;48.7;;;43.8;;
33912;SDS011;20200;52.084;5.224;2023-05-07T04:31:50;48.7;;;43.8;;
33912;SDS011;20200;52.084;5.224;2023-05-07T04:35:02;46.9;;;42.1;;
33912;SDS011;20200;52.084;5.224;2023-05-07T04:36:39;50.6;;;45.5;;
33912;SDS011;20200;52.084;5.224;2023-05-07T04:38:17;36.5;;;33.0;;
33912;SDS011;20200;52.084;5.224;2023-05-07T04:41:29;50.6;;;45.5;;
33912;SDS011;20200;52.084;5.224;2023-05-07T04:43:05;50.8;;;45.8;;
33912;SDS011;20200;52.084;5.224;2023-05-07T04:44:41;50.2;;;45.0;;
33912;SDS011;20200;52.084;5.224;2023-05-07T04:47:55;44.4;;;39.9;;
33912;SDS011;20200;52.084;5.224;2023-05-07T04:49:31;52.9;;;47.4;;
33912;SDS011;20200;52.084;5.224;2023-05-07T04:51:08;46.4;;;41.9;;
33912;SDS011;20200;52.084;5.224;2023-05-07T04:52:44;46.9;;;42.2;;
33912;SDS011;20200;52.084;5.224;2023-05-07T04:55:56;54.1;;;48.4;;
33912;SDS011;20200;52.084;5.224;2023-05-07T04:57:33;43.0;;;38.6;;
33912;SDS011;20200;52.084;5.224;2023-05-07T04:59:09;44.2;;;39.71;;
33912;SDS011;20200;52.084;5.224;2023-05-07T05:02:22;42.2;;;38.0;;
33912;SDS011;20200;52.084;5.224;2023-05-07T05:03:58;51.0;;;45.8;;
33912;SDS011;20200;52.084;5.224;2023-05-07T05:05:34;43.5;;;39.1;;
33912;SDS011;20200;52.084;5.224;2023-05-07T05:08:46;41.6;;;37.4;;
33912;SDS011;20200;52.084;5.224;2023-05-07T05:10:22;44.9;;;40.5;;
33912;SDS011;20200;52.084;5.224;2023-05-07T05:11:58;45.0;;;40.5;;
33912;SDS011;20200;52.084;5.224;2023-05-07T05:15:11;46.7;;;42.1;;
33912;SDS011;20200;52.084;5.224;2023-05-07T05:16:48;39.5;;;35.6;;
33912;SDS011;20200;52.084;5.224;2023-05-07T05:18:24;49.9;;;44.7;;
33912;SDS011;20200;52.084;5.224;2023-05-07T05:20:00;44.3;;;39.9;;
33912;SDS011;20200;52.084;5.224;2023-05-07T05:23:12;48.4;;;43.6;;
33912;SDS011;20200;52.084;5.224;2023-05-07T05:24:49;49.1;;;44.2;;
33912;SDS011;20200;52.084;5.224;2023-05-07T05:26:25;45.2;;;40.71;;
33912;SDS011;20200;52.084;5.224;2023-05-07T05:29:37;39.31;;;35.31;;
33912;SDS011;20200;52.084;5.224;2023-05-07T05:31:13;44.9;;;40.4;;
33912;SDS011;20200;52.084;5.224;2023-05-07T05:32:49;46.2;;;41.5;;
33912;SDS011;20200;52.084;5.224;2023-05-07T05:36:02;48.3;;;43.4;;
33912;SDS011;20200;52.084;5.224;2023-05-07T05:37:39;51.8;;;46.4;;
33912;SDS011;20200;52.084;5.224;2023-05-07T05:39:15;53.9;;;48.4;;
33912;SDS011;20200;52.084;5.224;2023-05-07T05:40:53;52.0;;;46.6;;
33912;SDS011;20200;52.084;5.224;2023-05-07T05:44:06;46.6;;;42.0;;
33912;SDS011;20200;52.084;5.224;2023-05-07T05:45:42;43.0;;;38.6;;
33912;SDS011;20200;52.084;5.224;2023-05-07T05:47:18;45.8;;;41.1;;
33912;SDS011;20200;52.084;5.224;2023-05-07T05:50:30;44.8;;;40.21;;
33912;SDS011;20200;52.084;5.224;2023-05-07T05:52:06;42.6;;;38.31;;
33912;SDS011;20200;52.084;5.224;2023-05-07T05:53:42;39.71;;;35.71;;
33912;SDS011;20200;52.084;5.224;2023-05-07T05:56:56;39.4;;;35.5;;
33912;SDS011;20200;52.084;5.224;2023-05-07T05:58:33;40.31;;;36.1;;
33912;SDS011;20200;52.084;5.224;2023-05-07T06:00:09;48.2;;;42.7;;
33912;SDS011;20200;52.084;5.224;2023-05-07T06:01:46;44.9;;;40.31;;
33912;SDS011;20200;52.084;5.224;2023-05-07T06:04:58;42.2;;;37.9;;
33912;SDS011;20200;52.084;5.224;2023-05-07T06:06:34;43.8;;;39.21;;
33912;SDS011;20200;52.084;5.224;2023-05-07T06:08:11;45.6;;;40.6;;
33912;SDS011;20200;52.084;5.224;2023-05-07T06:11:23;44.9;;;40.1;;
33912;SDS011;20200;52.084;5.224;2023-05-07T06:12:59;48.0;;;43.1;;
33912;SDS011;20200;52.084;5.224;2023-05-07T06:14:35;42.0;;;37.4;;
33912;SDS011;20200;52.084;5.224;2023-05-07T06:17:48;47.7;;;42.5;;
33912;SDS011;20200;52.084;5.224;2023-05-07T06:19:25;52.3;;;45.8;;
33912;SDS011;20200;52.084;5.224;2023-05-07T06:21:01;46.4;;;41.5;;
33912;SDS011;20200;52.084;5.224;2023-05-07T06:22:38;45.2;;;40.5;;
33912;SDS011;20200;52.084;5.224;2023-05-07T06:25:50;39.0;;;34.81;;
33912;SDS011;20200;52.084;5.224;2023-05-07T06:32:16;45.7;;;40.31;;
33912;SDS011;20200;52.084;5.224;2023-05-07T06:33:54;46.0;;;41.0;;
33912;SDS011;20200;52.084;5.224;2023-05-07T06:35:30;39.4;;;35.1;;
33912;SDS011;20200;52.084;5.224;2023-05-07T06:38:43;47.2;;;42.1;;
33912;SDS011;20200;52.084;5.224;2023-05-07T06:40:19;38.9;;;34.81;;
33912;SDS011;20200;52.084;5.224;2023-05-07T06:41:55;44.6;;;39.71;;
33912;SDS011;20200;52.084;5.224;2023-05-07T06:45:09;46.2;;;41.3;;
33912;SDS011;20200;52.084;5.224;2023-05-07T06:46:45;39.31;;;35.1;;
33912;SDS011;20200;52.084;5.224;2023-05-07T06:48:21;38.0;;;34.0;;
33912;SDS011;20200;52.084;5.224;2023-05-07T06:49:58;35.81;;;31.9;;
33912;SDS011;20200;52.084;5.224;2023-05-07T06:53:10;41.9;;;37.31;;
33912;SDS011;20200;52.084;5.224;2023-05-07T06:54:46;40.5;;;35.4;;
33912;SDS011;20200;52.084;5.224;2023-05-07T06:56:22;40.6;;;36.1;;
33912;SDS011;20200;52.084;5.224;2023-05-07T06:59:36;41.5;;;37.0;;
33912;SDS011;20200;52.084;5.224;2023-05-07T07:01:11;39.1;;;35.1;;
33912;SDS011;20200;52.084;5.224;2023-05-07T07:02:48;39.5;;;34.71;;
33912;SDS011;20200;52.084;5.224;2023-05-07T07:06:00;36.6;;;32.8;;
33912;SDS011;20200;52.084;5.224;2023-05-07T07:07:36;38.81;;;34.71;;
33912;SDS011;20200;52.084;5.224;2023-05-07T07:09:12;37.4;;;33.5;;
33912;SDS011;20200;52.084;5.224;2023-05-07T07:10:48;39.4;;;35.31;;
33912;SDS011;20200;52.084;5.224;2023-05-07T07:14:01;42.6;;;38.1;;
33912;SDS011;20200;52.084;5.224;2023-05-07T07:15:37;38.81;;;34.81;;
33912;SDS011;20200;52.084;5.224;2023-05-07T07:17:13;38.9;;;34.9;;
33912;SDS011;20200;52.084;5.224;2023-05-07T07:20:27;43.0;;;38.6;;
33912;SDS011;20200;52.084;5.224;2023-05-07T07:22:03;42.2;;;37.81;;
33912;SDS011;20200;52.084;5.224;2023-05-07T07:23:39;40.81;;;36.5;;
33912;SDS011;20200;52.084;5.224;2023-05-07T07:26:52;36.71;;;32.71;;
33912;SDS011;20200;52.084;5.224;2023-05-07T07:28:28;37.4;;;33.5;;
33912;SDS011;20200;52.084;5.224;2023-05-07T07:30:05;41.1;;;36.9;;
33912;SDS011;20200;52.084;5.224;2023-05-07T07:31:43;39.81;;;35.71;;
33912;SDS011;20200;52.084;5.224;2023-05-07T07:34:55;36.81;;;32.8;;
33912;SDS011;20200;52.084;5.224;2023-05-07T07:36:31;38.81;;;34.4;;
33912;SDS011;20200;52.084;5.224;2023-05-07T07:38:07;35.81;;;32.21;;
33912;SDS011;20200;52.084;5.224;2023-05-07T07:41:20;37.9;;;34.0;;
33912;SDS011;20200;52.084;5.224;2023-05-07T07:42:56;38.5;;;34.4;;
33912;SDS011;20200;52.084;5.224;2023-05-07T07:44:33;33.5;;;30.1;;
33912;SDS011;20200;52.084;5.224;2023-05-07T07:47:48;38.0;;;34.0;;
33912;SDS011;20200;52.084;5.224;2023-05-07T07:49:24;31.9;;;28.8;;
33912;SDS011;20200;52.084;5.224;2023-05-07T07:51:00;31.9;;;28.8;;
33912;SDS011;20200;52.084;5.224;2023-05-07T07:52:37;39.5;;;35.4;;
33912;SDS011;20200;52.084;5.224;2023-05-07T07:55:50;36.9;;;33.21;;
33912;SDS011;20200;52.084;5.224;2023-05-07T07:57:26;40.0;;;35.9;;
33912;SDS011;20200;52.084;5.224;2023-05-07T07:59:03;39.81;;;35.6;;
33912;SDS011;20200;52.084;5.224;2023-05-07T08:02:15;34.81;;;31.0;;
33912;SDS011;20200;52.084;5.224;2023-05-07T08:03:52;34.21;;;30.6;;
33912;SDS011;20200;52.084;5.224;2023-05-07T08:05:29;34.81;;;31.3;;
33912;SDS011;20200;52.084;5.224;2023-05-07T08:08:42;34.71;;;31.2;;
33912;SDS011;20200;52.084;5.224;2023-05-07T08:10:19;38.21;;;32.5;;
33912;SDS011;20200;52.084;5.224;2023-05-07T08:11:56;31.4;;;28.2;;
33912;SDS011;20200;52.084;5.224;2023-05-07T08:13:33;39.6;;;35.6;;
33912;SDS011;20200;52.084;5.224;2023-05-07T08:16:46;39.71;;;35.6;;
33912;SDS011;20200;52.084;5.224;2023-05-07T08:18:23;39.1;;;35.0;;
33912;SDS011;20200;52.084;5.224;2023-05-07T08:20:01;33.4;;;29.9;;
33912;SDS011;20200;52.084;5.224;2023-05-07T08:23:15;32.71;;;29.4;;
33912;SDS011;20200;52.084;5.224;2023-05-07T08:24:51;31.7;;;28.5;;
33912;SDS011;20200;52.084;5.224;2023-05-07T08:26:27;33.8;;;30.4;;
33912;SDS011;20200;52.084;5.224;2023-05-07T08:29:41;28.9;;;26.1;;
33912;SDS011;20200;52.084;5.224;2023-05-07T08:31:17;30.8;;;27.6;;
33912;SDS011;20200;52.084;5.224;2023-05-07T08:32:53;31.1;;;27.9;;
33912;SDS011;20200;52.084;5.224;2023-05-07T08:34:29;30.3;;;27.2;;
33912;SDS011;20200;52.084;5.224;2023-05-07T08:37:41;30.2;;;27.1;;
33912;SDS011;20200;52.084;5.224;2023-05-07T08:39:19;34.21;;;30.5;;
33912;SDS011;20200;52.084;5.224;2023-05-07T08:40:55;33.3;;;29.9;;
33912;SDS011;20200;52.084;5.224;2023-05-07T08:44:11;32.0;;;28.7;;
33912;SDS011;20200;52.084;5.224;2023-05-07T08:45:49;34.6;;;30.9;;
33912;SDS011;20200;52.084;5.224;2023-05-07T08:47:32;31.7;;;28.4;;
33912;SDS011;20200;52.084;5.224;2023-05-07T08:49:15;37.9;;;33.4;;
33912;SDS011;20200;52.084;5.224;2023-05-07T08:52:29;35.1;;;31.5;;
33912;SDS011;20200;52.084;5.224;2023-05-07T08:54:05;37.5;;;33.5;;
33912;SDS011;20200;52.084;5.224;2023-05-07T08:55:43;32.8;;;29.5;;
33912;SDS011;20200;52.084;5.224;2023-05-07T08:58:57;31.1;;;28.0;;
33912;SDS011;20200;52.084;5.224;2023-05-07T09:00:35;31.9;;;28.9;;
33912;SDS011;20200;52.084;5.224;2023-05-07T09:02:13;37.4;;;33.71;;
33912;SDS011;20200;52.084;5.224;2023-05-07T09:03:49;33.21;;;30.0;;
33912;SDS011;20200;52.084;5.224;2023-05-07T09:07:04;35.1;;;31.6;;
33912;SDS011;20200;52.084;5.224;2023-05-07T09:08:40;33.4;;;30.1;;
33912;SDS011;20200;52.084;5.224;2023-05-07T09:10:25;31.6;;;28.5;;
33912;SDS011;20200;52.084;5.224;2023-05-07T09:13:39;30.4;;;27.2;;
33912;SDS011;20200;52.084;5.224;2023-05-07T09:15:15;30.7;;;27.6;;
33912;SDS011;20200;52.084;5.224;2023-05-07T09:16:51;30.7;;;27.7;;
33912;SDS011;20200;52.084;5.224;2023-05-07T09:18:28;30.3;;;27.4;;
33912;SDS011;20200;52.084;5.224;2023-05-07T09:21:42;30.1;;;27.2;;
33912;SDS011;20200;52.084;5.224;2023-05-07T09:23:20;29.8;;;26.7;;
33912;SDS011;20200;52.084;5.224;2023-05-07T09:24:57;28.1;;;25.2;;
33912;SDS011;20200;52.084;5.224;2023-05-07T09:28:10;26.4;;;23.5;;
33912;SDS011;20200;52.084;5.224;2023-05-07T09:29:46;26.3;;;23.6;;
33912;SDS011;20200;52.084;5.224;2023-05-07T09:31:23;26.9;;;24.1;;
33912;SDS011;20200;52.084;5.224;2023-05-07T09:34:40;25.9;;;23.1;;
33912;SDS011;20200;52.084;5.224;2023-05-07T09:36:17;28.7;;;25.8;;
33912;SDS011;20200;52.084;5.224;2023-05-07T09:37:54;24.3;;;21.9;;
33912;SDS011;20200;52.084;5.224;2023-05-07T09:39:40;23.7;;;20.6;;
33912;SDS011;20200;52.084;5.224;2023-05-07T09:42:55;22.1;;;20.0;;
33912;SDS011;20200;52.084;5.224;2023-05-07T09:44:32;20.9;;;18.7;;
33912;SDS011;20200;52.084;5.224;2023-05-07T09:46:11;19.2;;;17.2;;
33912;SDS011;20200;52.084;5.224;2023-05-07T09:47:50;19.91;;;17.3;;
33912;SDS011;20200;52.084;5.224;2023-05-07T09:51:14;18.3;;;15.4;;
33912;SDS011;20200;52.084;5.224;2023-05-07T09:53:05;19.8;;;15.8;;
33912;SDS011;20200;52.084;5.224;2023-05-07T09:54:44;19.61;;;15.9;;
33912;SDS011;20200;52.084;5.224;2023-05-07T09:56:22;18.5;;;16.3;;
33912;SDS011;20200;52.084;5.224;2023-05-07T09:59:40;17.8;;;15.9;;
33912;SDS011;20200;52.084;5.224;2023-05-07T10:01:19;15.1;;;12.5;;
33912;SDS011;20200;52.084;5.224;2023-05-07T10:02:57;14.0;;;11.2;;
33912;SDS011;20200;52.084;5.224;2023-05-07T10:04:35;12.2;;;9.6;;
33912;SDS011;20200;52.084;5.224;2023-05-07T10:07:50;12.0;;;8.9;;
33912;SDS011;20200;52.084;5.224;2023-05-07T10:09:28;10.7;;;7.7;;
33912;SDS011;20200;52.084;5.224;2023-05-07T10:11:06;10.0;;;8.2;;
33912;SDS011;20200;52.084;5.224;2023-05-07T10:14:19;13.9;;;11.5;;
33912;SDS011;20200;52.084;5.224;2023-05-07T10:15:57;15.4;;;12.9;;
33912;SDS011;20200;52.084;5.224;2023-05-07T10:17:34;11.2;;;9.5;;
33912;SDS011;20200;52.084;5.224;2023-05-07T10:19:11;11.0;;;9.9;;
33912;SDS011;20200;52.084;5.224;2023-05-07T10:22:28;14.5;;;12.1;;
33912;SDS011;20200;52.084;5.224;2023-05-07T10:24:13;13.2;;;11.6;;
33912;SDS011;20200;52.084;5.224;2023-05-07T10:25:55;11.4;;;10.21;;
33912;SDS011;20200;52.084;5.224;2023-05-07T10:27:33;11.4;;;10.0;;
33912;SDS011;20200;52.084;5.224;2023-05-07T10:31:05;11.2;;;9.9;;
33912;SDS011;20200;52.084;5.224;2023-05-07T10:33:01;12.5;;;10.5;;
33912;SDS011;20200;52.084;5.224;2023-05-07T10:34:42;13.8;;;12.2;;
33912;SDS011;20200;52.084;5.224;2023-05-07T10:36:21;14.7;;;13.2;;
33912;SDS011;20200;52.084;5.224;2023-05-07T10:37:59;13.2;;;11.6;;
33912;SDS011;20200;52.084;5.224;2023-05-07T10:41:12;14.1;;;12.7;;
33912;SDS011;20200;52.084;5.224;2023-05-07T10:42:53;14.7;;;11.9;;
33912;SDS011;20200;52.084;5.224;2023-05-07T10:44:30;12.0;;;10.21;;
33912;SDS011;20200;52.084;5.224;2023-05-07T10:48:05;13.9;;;11.2;;
33912;SDS011;20200;52.084;5.224;2023-05-07T10:50:51;15.3;;;12.6;;
33912;SDS011;20200;52.084;5.224;2023-05-07T10:53:26;13.9;;;12.3;;
33912;SDS011;20200;52.084;5.224;2023-05-07T10:55:32;12.6;;;11.1;;
33912;SDS011;20200;52.084;5.224;2023-05-07T10:57:41;11.2;;;10.0;;
33912;SDS011;20200;52.084;5.224;2023-05-07T10:59:30;11.1;;;9.31;;
33912;SDS011;20200;52.084;5.224;2023-05-07T11:01:10;11.6;;;10.4;;
33912;SDS011;20200;52.084;5.224;2023-05-07T11:05:18;11.2;;;8.71;;
33912;SDS011;20200;52.084;5.224;2023-05-07T11:07:23;16.7;;;12.2;;
33912;SDS011;20200;52.084;5.224;2023-05-07T11:09:05;13.5;;;11.1;;
33912;SDS011;20200;52.084;5.224;2023-05-07T11:10:57;13.5;;;12.1;;
33912;SDS011;20200;52.084;5.224;2023-05-07T11:13:07;14.4;;;12.2;;
33912;SDS011;20200;52.084;5.224;2023-05-07T11:14:44;15.8;;;13.4;;
33912;SDS011;20200;52.084;5.224;2023-05-07T11:16:22;13.5;;;12.1;;
33912;SDS011;20200;52.084;5.224;2023-05-07T11:18:00;13.7;;;11.9;;
33912;SDS011;20200;52.084;5.224;2023-05-07T11:21:32;17.7;;;14.2;;
33912;SDS011;20200;52.084;5.224;2023-05-07T11:23:39;15.9;;;13.4;;
33912;SDS011;20200;52.084;5.224;2023-05-07T11:25:35;17.11;;;14.9;;
33912;SDS011;20200;52.084;5.224;2023-05-07T11:27:12;18.3;;;14.0;;
33912;SDS011;20200;52.084;5.224;2023-05-07T11:28:49;16.7;;;13.4;;
33912;SDS011;20200;52.084;5.224;2023-05-07T11:30:27;15.3;;;13.5;;
33912;SDS011;20200;52.084;5.224;2023-05-07T11:33:41;16.7;;;14.5;;
33912;SDS011;20200;52.084;5.224;2023-05-07T11:35:22;17.91;;;13.9;;
33912;SDS011;20200;52.084;5.224;2023-05-07T11:36:59;17.0;;;13.8;;
33912;SDS011;20200;52.084;5.224;2023-05-07T11:38:36;17.91;;;12.9;;
33912;SDS011;20200;52.084;5.224;2023-05-07T11:41:50;16.61;;;12.9;;
33912;SDS011;20200;52.084;5.224;2023-05-07T11:43:26;15.1;;;13.3;;
33912;SDS011;20200;52.084;5.224;2023-05-07T11:45:04;15.4;;;11.7;;
33912;SDS011;20200;52.084;5.224;2023-05-07T11:48:20;16.0;;;12.5;;
33912;SDS011;20200;52.084;5.224;2023-05-07T11:50:02;17.41;;;12.2;;
33912;SDS011;20200;52.084;5.224;2023-05-07T11:51:41;15.3;;;12.5;;
33912;SDS011;20200;52.084;5.224;2023-05-07T11:53:18;12.5;;;10.7;;
33912;SDS011;20200;52.084;5.224;2023-05-07T11:56:34;16.4;;;13.5;;
33912;SDS011;20200;52.084;5.224;2023-05-07T11:58:11;14.9;;;12.9;;
33912;SDS011;20200;52.084;5.224;2023-05-07T11:59:56;15.7;;;12.8;;
33912;SDS011;20200;52.084;5.224;2023-05-07T12:01:35;13.5;;;11.4;;
33912;SDS011;20200;52.084;5.224;2023-05-07T12:04:47;15.9;;;12.4;;
33912;SDS011;20200;52.084;5.224;2023-05-07T12:06:23;13.5;;;12.1;;
33912;SDS011;20200;52.084;5.224;2023-05-07T12:08:00;15.8;;;12.0;;
33912;SDS011;20200;52.084;5.224;2023-05-07T12:11:13;16.4;;;12.4;;
33912;SDS011;20200;52.084;5.224;2023-05-07T12:12:51;15.4;;;13.7;;
33912;SDS011;20200;52.084;5.224;2023-05-07T12:14:28;15.4;;;13.7;;
33912;SDS011;20200;52.084;5.224;2023-05-07T12:17:42;13.7;;;12.3;;
33912;SDS011;20200;52.084;5.224;2023-05-07T12:19:19;17.5;;;13.5;;
33912;SDS011;20200;52.084;5.224;2023-05-07T12:20:56;17.0;;;14.7;;
33912;SDS011;20200;52.084;5.224;2023-05-07T12:22:34;18.5;;;12.1;;
33912;SDS011;20200;52.084;5.224;2023-05-07T12:25:49;12.4;;;10.6;;
33912;SDS011;20200;52.084;5.224;2023-05-07T12:27:27;14.4;;;10.0;;
33912;SDS011;20200;52.084;5.224;2023-05-07T12:29:03;14.9;;;11.3;;
33912;SDS011;20200;52.084;5.224;2023-05-07T12:32:19;15.3;;;13.4;;
33912;SDS011;20200;52.084;5.224;2023-05-07T12:33:57;17.7;;;13.4;;
33912;SDS011;20200;52.084;5.224;2023-05-07T12:35:36;15.4;;;12.7;;
33912;SDS011;20200;52.084;5.224;2023-05-07T12:37:16;16.0;;;12.1;;
33912;SDS011;20200;52.084;5.224;2023-05-07T12:40:37;15.4;;;11.7;;